createdAt,value
2018-01-28T00:00:10.543Z,952.05
2018-01-28T00:01:10.538Z,952.12
2018-01-28T00:02:10.534Z,952.09
2018-01-28T00:03:10.529Z,952.09
2018-01-28T00:04:10.524Z,952.06
2018-01-28T00:05:10.521Z,952.07
2018-01-28T00:06:10.516Z,952.12
2018-01-28T00:07:10.510Z,952.14
2018-01-28T00:08:10.506Z,952.10
2018-01-28T00:09:10.502Z,952.08
2018-01-28T00:10:10.497Z,952.08
2018-01-28T00:11:10.492Z,952.13
2018-01-28T00:12:10.488Z,952.14
2018-01-28T00:13:10.485Z,952.15
2018-01-28T00:14:10.479Z,952.15
2018-01-28T00:15:10.473Z,952.13
2018-01-28T00:16:10.470Z,952.14
2018-01-28T00:17:10.464Z,952.15
2018-01-28T00:18:10.458Z,952.13
2018-01-28T00:19:10.453Z,952.14
2018-01-28T00:20:10.450Z,952.09
2018-01-28T00:21:10.446Z,952.09
2018-01-28T00:22:10.440Z,952.07
2018-01-28T00:23:10.434Z,952.10
2018-01-28T00:24:10.432Z,952.12
2018-01-28T00:25:10.426Z,952.11
2018-01-28T00:26:10.422Z,952.14
2018-01-28T00:27:10.416Z,952.15
2018-01-28T00:28:10.411Z,952.16
2018-01-28T00:29:10.406Z,952.20
2018-01-28T00:30:10.401Z,952.18
2018-01-28T00:31:10.397Z,952.18
2018-01-28T00:32:10.392Z,952.17
2018-01-28T00:33:10.388Z,952.22
2018-01-28T00:34:10.382Z,952.27
2018-01-28T00:35:10.377Z,952.25
2018-01-28T00:36:10.373Z,952.32
2018-01-28T00:37:10.368Z,952.29
2018-01-28T00:38:10.363Z,952.28
2018-01-28T00:39:10.358Z,952.29
2018-01-28T00:40:10.352Z,952.31
2018-01-28T00:41:10.347Z,952.32
2018-01-28T00:42:10.341Z,952.27
2018-01-28T00:43:10.337Z,952.26
2018-01-28T00:44:10.332Z,952.29
2018-01-28T00:45:10.327Z,952.28
2018-01-28T00:46:10.319Z,952.28
2018-01-28T00:47:10.317Z,952.29
2018-01-28T00:48:10.312Z,952.24
2018-01-28T00:49:10.307Z,952.26
2018-01-28T00:50:10.300Z,952.24
2018-01-28T00:51:10.296Z,952.29
2018-01-28T00:52:10.291Z,952.30
2018-01-28T00:53:10.285Z,952.32
2018-01-28T00:54:10.279Z,952.32
2018-01-28T00:55:10.275Z,952.33
2018-01-28T00:56:10.270Z,952.29
2018-01-28T00:57:10.264Z,952.27
2018-01-28T00:58:10.259Z,952.28
2018-01-28T00:59:10.253Z,952.26
2018-01-28T01:00:10.249Z,952.28
2018-01-28T01:01:10.243Z,952.22
2018-01-28T01:02:10.237Z,952.22
2018-01-28T01:03:10.232Z,952.20
2018-01-28T01:04:10.227Z,952.17
2018-01-28T01:05:10.221Z,952.18
2018-01-28T01:06:10.217Z,952.16
2018-01-28T01:07:10.211Z,952.18
2018-01-28T01:08:10.208Z,952.18
2018-01-28T01:09:10.200Z,952.19
2018-01-28T01:10:10.194Z,952.14
2018-01-28T01:11:10.189Z,952.16
2018-01-28T01:12:10.185Z,952.17
2018-01-28T01:13:10.180Z,952.15
2018-01-28T01:14:10.175Z,952.11
2018-01-28T01:15:10.173Z,952.11
2018-01-28T01:16:10.167Z,952.08
2018-01-28T01:17:10.165Z,952.07
2018-01-28T01:18:10.153Z,952.08
2018-01-28T01:19:10.148Z,952.12
2018-01-28T01:20:10.143Z,952.15
2018-01-28T01:21:10.138Z,952.12
2018-01-28T01:22:10.131Z,952.14
2018-01-28T01:23:10.127Z,952.14
2018-01-28T01:24:10.123Z,952.19
2018-01-28T01:25:10.116Z,952.18
2018-01-28T01:26:10.111Z,952.19
2018-01-28T01:27:10.105Z,952.17
2018-01-28T01:28:10.101Z,952.14
2018-01-28T01:29:10.096Z,952.15
2018-01-28T01:30:10.089Z,952.13
2018-01-28T01:31:10.083Z,952.17
2018-01-28T01:32:10.079Z,952.16
2018-01-28T01:33:10.074Z,952.22
2018-01-28T01:34:10.069Z,952.20
2018-01-28T01:35:10.063Z,952.24
2018-01-28T01:36:10.058Z,952.24
2018-01-28T01:37:10.052Z,952.25
2018-01-28T01:38:10.047Z,952.29
2018-01-28T01:39:10.041Z,952.30
2018-01-28T01:40:10.038Z,952.30
2018-01-28T01:41:10.031Z,952.29
2018-01-28T01:42:10.024Z,952.32
2018-01-28T01:43:10.018Z,952.38
2018-01-28T01:44:10.013Z,952.39
2018-01-28T01:45:10.010Z,952.48
2018-01-28T01:46:10.006Z,952.50
2018-01-28T01:47:09.997Z,952.48
2018-01-28T01:48:09.992Z,952.51
2018-01-28T01:49:09.987Z,952.52
2018-01-28T01:50:09.982Z,952.48
2018-01-28T01:51:09.976Z,952.46
2018-01-28T01:52:09.971Z,952.42
2018-01-28T01:53:09.966Z,952.43
2018-01-28T01:54:09.959Z,952.40
2018-01-28T01:55:09.953Z,952.41
2018-01-28T01:56:09.950Z,952.38
2018-01-28T01:57:09.943Z,952.35
2018-01-28T01:58:09.937Z,952.32
2018-01-28T01:59:09.932Z,952.31
2018-01-28T02:00:09.928Z,952.29
2018-01-28T02:01:09.922Z,952.31
2018-01-28T02:02:09.917Z,952.31
2018-01-28T02:03:09.910Z,952.35
2018-01-28T02:04:09.904Z,952.37
2018-01-28T02:05:09.899Z,952.35
2018-01-28T02:06:09.892Z,952.36
2018-01-28T02:07:09.886Z,952.40
2018-01-28T02:08:09.882Z,952.43
2018-01-28T02:09:09.882Z,952.43
2018-01-28T02:10:09.870Z,952.43
2018-01-28T02:11:09.864Z,952.45
2018-01-28T02:12:09.860Z,952.46
2018-01-28T02:13:09.855Z,952.44
2018-01-28T02:14:09.848Z,952.48
2018-01-28T02:15:09.841Z,952.50
2018-01-28T02:16:09.836Z,952.47
2018-01-28T02:17:09.830Z,952.53
2018-01-28T02:18:09.835Z,952.50
2018-01-28T02:19:09.816Z,952.49
2018-01-28T02:20:09.856Z,952.50
2018-01-28T02:21:09.806Z,952.51
2018-01-28T02:22:09.799Z,952.54
2018-01-28T02:23:09.793Z,952.55
2018-01-28T02:24:09.787Z,952.62
2018-01-28T02:25:09.781Z,952.54
2018-01-28T02:26:09.776Z,952.58
2018-01-28T02:27:09.769Z,952.54
2018-01-28T02:28:09.763Z,952.58
2018-01-28T02:29:09.758Z,952.55
2018-01-28T02:30:09.750Z,952.56
2018-01-28T02:31:09.744Z,952.60
2018-01-28T02:32:09.739Z,952.59
2018-01-28T02:33:09.732Z,952.56
2018-01-28T02:34:09.726Z,952.60
2018-01-28T02:35:09.720Z,952.63
2018-01-28T02:36:09.714Z,952.56
2018-01-28T02:37:09.709Z,952.59
2018-01-28T02:38:09.702Z,952.60
2018-01-28T02:39:09.697Z,952.62
2018-01-28T02:40:09.690Z,952.63
2018-01-28T02:41:09.684Z,952.54
2018-01-28T02:42:09.681Z,952.58
2018-01-28T02:43:09.672Z,952.57
2018-01-28T02:44:09.667Z,952.55
2018-01-28T02:45:09.661Z,952.62
2018-01-28T02:46:09.653Z,952.64
2018-01-28T02:47:09.647Z,952.67
2018-01-28T02:48:09.642Z,952.67
2018-01-28T02:49:09.639Z,952.66
2018-01-28T02:50:09.632Z,952.67
2018-01-28T02:51:09.623Z,952.70
2018-01-28T02:52:09.617Z,952.69
2018-01-28T02:53:09.617Z,952.70
2018-01-28T02:54:09.606Z,952.68
2018-01-28T02:55:09.600Z,952.69
2018-01-28T02:56:09.595Z,952.64
2018-01-28T02:57:09.587Z,952.66
2018-01-28T02:58:09.583Z,952.63
2018-01-28T02:59:09.574Z,952.67
2018-01-28T03:00:09.571Z,952.69
2018-01-28T03:01:09.563Z,952.68
2018-01-28T03:02:09.555Z,952.69
2018-01-28T03:03:09.549Z,952.71
2018-01-28T03:04:09.544Z,952.70
2018-01-28T03:05:09.537Z,952.67
2018-01-28T03:06:09.529Z,952.67
2018-01-28T03:07:09.523Z,952.66
2018-01-28T03:08:09.517Z,952.74
2018-01-28T03:09:09.512Z,952.66
2018-01-28T03:10:09.504Z,952.65
2018-01-28T03:11:09.500Z,952.68
2018-01-28T03:12:09.492Z,952.73
2018-01-28T03:13:09.488Z,952.76
2018-01-28T03:14:09.483Z,952.75
2018-01-28T03:15:09.474Z,952.74
2018-01-28T03:16:09.468Z,952.88
2018-01-28T03:17:09.461Z,952.88
2018-01-28T03:18:09.455Z,952.85
2018-01-28T03:19:09.449Z,952.93
2018-01-28T03:20:09.442Z,952.99
2018-01-28T03:21:09.437Z,952.87
2018-01-28T03:22:09.430Z,952.92
2018-01-28T03:23:09.425Z,952.95
2018-01-28T03:24:09.418Z,952.93
2018-01-28T03:25:09.412Z,952.93
2018-01-28T03:26:09.404Z,953.01
2018-01-28T03:27:09.398Z,952.98
2018-01-28T03:28:09.393Z,953.01
2018-01-28T03:29:09.387Z,953.06
2018-01-28T03:30:09.380Z,953.07
2018-01-28T03:31:09.374Z,953.12
2018-01-28T03:32:09.368Z,953.10
2018-01-28T03:33:09.361Z,953.10
2018-01-28T03:34:09.355Z,953.09
2018-01-28T03:35:09.349Z,953.08
2018-01-28T03:36:09.342Z,953.11
2018-01-28T03:37:09.343Z,953.08
2018-01-28T03:38:09.335Z,953.10
2018-01-28T03:39:09.324Z,953.07
2018-01-28T03:40:09.318Z,953.08
2018-01-28T03:41:09.313Z,953.12
2018-01-28T03:42:09.304Z,953.15
2018-01-28T03:43:09.299Z,953.13
2018-01-28T03:44:09.293Z,953.12
2018-01-28T03:45:09.287Z,953.12
2018-01-28T03:46:09.280Z,953.11
2018-01-28T03:47:09.272Z,953.07
2018-01-28T03:48:09.266Z,953.11
2018-01-28T03:49:09.260Z,953.14
2018-01-28T03:50:09.254Z,953.12
2018-01-28T03:51:09.248Z,953.09
2018-01-28T03:52:09.241Z,953.11
2018-01-28T03:53:09.235Z,953.08
2018-01-28T03:54:09.230Z,953.04
2018-01-28T03:55:09.221Z,953.03
2018-01-28T03:56:09.217Z,953.07
2018-01-28T03:57:09.209Z,953.07
2018-01-28T03:58:09.208Z,953.03
2018-01-28T03:59:09.201Z,953.06
2018-01-28T04:00:09.190Z,953.10
2018-01-28T04:01:09.184Z,953.12
2018-01-28T04:02:09.178Z,953.10
2018-01-28T04:03:09.171Z,953.14
2018-01-28T04:04:09.165Z,953.12
2018-01-28T04:05:09.160Z,953.15
2018-01-28T04:06:09.152Z,953.10
2018-01-28T04:07:09.146Z,953.09
2018-01-28T04:08:09.140Z,953.05
2018-01-28T04:09:09.136Z,953.05
2018-01-28T04:10:09.127Z,953.03
2018-01-28T04:11:09.123Z,953.04
2018-01-28T04:12:09.116Z,953.01
2018-01-28T04:13:09.109Z,953.02
2018-01-28T04:14:09.103Z,953.05
2018-01-28T04:15:09.096Z,953.01
2018-01-28T04:16:09.091Z,953.02
2018-01-28T04:17:09.084Z,953.02
2018-01-28T04:18:09.076Z,952.99
2018-01-28T04:19:09.070Z,952.98
2018-01-28T04:20:09.064Z,952.93
2018-01-28T04:21:09.058Z,952.97
2018-01-28T04:22:09.051Z,952.93
2018-01-28T04:23:09.045Z,952.97
2018-01-28T04:24:09.039Z,953.00
2018-01-28T04:25:09.033Z,952.96
2018-01-28T04:26:09.027Z,952.96
2018-01-28T04:27:09.020Z,952.90
2018-01-28T04:28:09.014Z,952.89
2018-01-28T04:29:09.008Z,952.87
2018-01-28T04:30:09.001Z,952.85
2018-01-28T04:31:08.995Z,952.90
2018-01-28T04:32:08.990Z,952.87
2018-01-28T04:33:08.985Z,952.88
2018-01-28T04:34:08.974Z,952.89
2018-01-28T04:35:08.969Z,952.92
2018-01-28T04:36:08.961Z,952.88
2018-01-28T04:37:08.956Z,952.88
2018-01-28T04:38:08.949Z,952.88
2018-01-28T04:39:08.943Z,952.89
2018-01-28T04:40:08.936Z,952.87
2018-01-28T04:41:08.931Z,952.85
2018-01-28T04:42:08.924Z,952.89
2018-01-28T04:43:08.921Z,952.87
2018-01-28T04:44:08.911Z,952.86
2018-01-28T04:45:08.905Z,952.87
2018-01-28T04:46:08.897Z,952.85
2018-01-28T04:47:08.889Z,952.82
2018-01-28T04:48:08.883Z,952.81
2018-01-28T04:49:08.879Z,952.81
2018-01-28T04:50:08.869Z,952.82
2018-01-28T04:51:08.863Z,952.80
2018-01-28T04:52:08.857Z,952.75
2018-01-28T04:53:08.850Z,952.75
2018-01-28T04:54:08.843Z,952.75
2018-01-28T04:55:08.837Z,952.74
2018-01-28T04:56:08.831Z,952.70
2018-01-28T04:57:08.829Z,952.67
2018-01-28T04:58:08.818Z,952.68
2018-01-28T04:59:09.111Z,952.67
2018-01-28T05:00:08.805Z,952.71
2018-01-28T05:01:08.798Z,952.66
2018-01-28T05:02:08.791Z,952.69
2018-01-28T05:03:08.784Z,952.64
2018-01-28T05:04:08.778Z,952.69
2018-01-28T05:05:08.771Z,952.65
2018-01-28T05:06:08.764Z,952.69
2018-01-28T05:07:08.758Z,952.69
2018-01-28T05:08:08.751Z,952.70
2018-01-28T05:09:08.745Z,952.67
2018-01-28T05:10:08.739Z,952.70
2018-01-28T05:11:08.732Z,952.67
2018-01-28T05:12:08.725Z,952.66
2018-01-28T05:13:08.719Z,952.66
2018-01-28T05:14:08.715Z,952.66
2018-01-28T05:15:08.705Z,952.71
2018-01-28T05:16:08.700Z,952.72
2018-01-28T05:17:08.693Z,952.71
2018-01-28T05:18:08.686Z,952.65
2018-01-28T05:19:08.679Z,952.66
2018-01-28T05:20:08.675Z,952.65
2018-01-28T05:21:08.668Z,952.70
2018-01-28T05:22:08.659Z,952.71
2018-01-28T05:23:08.653Z,952.71
2018-01-28T05:24:08.646Z,952.73
2018-01-28T05:25:08.640Z,952.75
2018-01-28T05:26:08.632Z,952.67
2018-01-28T05:27:08.626Z,952.69
2018-01-28T05:28:08.621Z,952.70
2018-01-28T05:29:08.612Z,952.73
2018-01-28T05:30:08.605Z,952.65
2018-01-28T05:31:08.600Z,952.65
2018-01-28T05:32:08.593Z,952.69
2018-01-28T05:33:08.591Z,952.72
2018-01-28T05:34:08.578Z,952.72
2018-01-28T05:35:08.572Z,952.69
2018-01-28T05:36:08.565Z,952.66
2018-01-28T05:37:08.557Z,952.77
2018-01-28T05:38:08.551Z,952.80
2018-01-28T05:39:08.544Z,952.81
2018-01-28T05:40:08.537Z,952.81
2018-01-28T05:41:08.531Z,952.81
2018-01-28T05:42:08.522Z,952.86
2018-01-28T05:43:08.519Z,952.84
2018-01-28T05:44:08.514Z,952.80
2018-01-28T05:45:08.504Z,952.83
2018-01-28T05:46:08.501Z,952.82
2018-01-28T05:47:08.489Z,952.77
2018-01-28T05:48:08.484Z,952.78
2018-01-28T05:49:08.478Z,952.78
2018-01-28T05:50:08.472Z,952.75
2018-01-28T05:51:08.463Z,952.76
2018-01-28T05:52:08.460Z,952.74
2018-01-28T05:53:08.460Z,952.71
2018-01-28T05:54:08.442Z,952.79
2018-01-28T05:55:08.435Z,952.69
2018-01-28T05:56:08.430Z,952.69
2018-01-28T05:57:08.427Z,952.71
2018-01-28T05:58:08.415Z,952.69
2018-01-28T05:59:08.410Z,952.69
2018-01-28T06:00:08.401Z,952.65
2018-01-28T06:01:08.397Z,952.63
2018-01-28T06:02:08.394Z,952.57
2018-01-28T06:03:08.382Z,952.60
2018-01-28T06:04:08.376Z,952.65
2018-01-28T06:05:08.370Z,952.63
2018-01-28T06:06:08.362Z,952.59
2018-01-28T06:07:08.355Z,952.58
2018-01-28T06:08:08.349Z,952.65
2018-01-28T06:09:08.343Z,952.65
2018-01-28T06:10:08.336Z,952.60
2018-01-28T06:11:08.329Z,952.68
2018-01-28T06:12:08.325Z,952.63
2018-01-28T06:13:08.319Z,952.66
2018-01-28T06:14:08.308Z,952.70
2018-01-28T06:15:08.303Z,952.69
2018-01-28T06:16:08.296Z,952.67
2018-01-28T06:17:08.290Z,952.72
2018-01-28T06:18:08.283Z,952.69
2018-01-28T06:19:08.276Z,952.69
2018-01-28T06:20:08.270Z,952.66
2018-01-28T06:21:08.265Z,952.62
2018-01-28T06:22:08.256Z,952.70
2018-01-28T06:23:08.250Z,952.70
2018-01-28T06:24:08.244Z,952.66
2018-01-28T06:25:08.240Z,952.70
2018-01-28T06:26:08.229Z,952.70
2018-01-28T06:27:08.224Z,952.70
2018-01-28T06:28:08.217Z,952.69
2018-01-28T06:29:08.210Z,952.72
2018-01-28T06:30:08.208Z,952.67
2018-01-28T06:31:08.197Z,952.64
2018-01-28T06:32:08.192Z,952.59
2018-01-28T06:33:08.184Z,952.66
2018-01-28T06:34:08.176Z,952.65
2018-01-28T06:35:08.170Z,952.63
2018-01-28T06:36:08.164Z,952.58
2018-01-28T06:37:08.157Z,952.55
2018-01-28T06:38:08.151Z,952.56
2018-01-28T06:39:08.144Z,952.61
2018-01-28T06:40:08.140Z,952.59
2018-01-28T06:41:08.131Z,952.68
2018-01-28T06:42:08.125Z,952.67
2018-01-28T06:43:08.117Z,952.63
2018-01-28T06:44:08.112Z,952.63
2018-01-28T06:45:08.107Z,952.63
2018-01-28T06:46:08.098Z,952.65
2018-01-28T06:47:08.092Z,952.65
2018-01-28T06:48:08.085Z,952.67
2018-01-28T06:49:08.078Z,952.62
2018-01-28T06:50:08.072Z,952.60
2018-01-28T06:51:08.066Z,952.60
2018-01-28T06:52:08.061Z,952.66
2018-01-28T06:53:08.053Z,952.56
2018-01-28T06:54:08.046Z,952.62
2018-01-28T06:55:08.041Z,952.67
2018-01-28T06:56:08.034Z,952.62
2018-01-28T06:57:08.028Z,952.64
2018-01-28T06:58:08.020Z,952.61
2018-01-28T06:59:08.014Z,952.71
2018-01-28T07:00:08.010Z,952.64
2018-01-28T07:01:08.002Z,952.66
2018-01-28T07:02:07.994Z,952.71
2018-01-28T07:03:07.988Z,952.78
2018-01-28T07:04:07.981Z,952.76
2018-01-28T07:05:07.976Z,952.78
2018-01-28T07:06:07.969Z,952.78
2018-01-28T07:07:07.962Z,952.79
2018-01-28T07:08:07.956Z,952.81
2018-01-28T07:09:07.949Z,952.87
2018-01-28T07:10:07.944Z,952.88
2018-01-28T07:11:07.937Z,952.91
2018-01-28T07:12:07.931Z,952.91
2018-01-28T07:13:07.926Z,952.97
2018-01-28T07:14:07.918Z,952.92
2018-01-28T07:15:07.912Z,952.97
2018-01-28T07:16:07.906Z,953.04
2018-01-28T07:17:07.900Z,953.03
2018-01-28T07:18:07.892Z,953.04
2018-01-28T07:19:07.887Z,953.01
2018-01-28T07:20:07.882Z,953.03
2018-01-28T07:21:07.873Z,953.01
2018-01-28T07:22:07.867Z,952.98
2018-01-28T07:23:07.860Z,953.05
2018-01-28T07:24:07.854Z,953.05
2018-01-28T07:25:07.848Z,953.05
2018-01-28T07:26:07.841Z,953.08
2018-01-28T07:27:07.838Z,953.11
2018-01-28T07:28:07.828Z,953.10
2018-01-28T07:29:07.824Z,953.13
2018-01-28T07:30:07.816Z,953.13
2018-01-28T07:31:07.810Z,953.14
2018-01-28T07:32:07.804Z,953.14
2018-01-28T07:33:07.799Z,953.16
2018-01-28T07:34:07.793Z,953.19
2018-01-28T07:35:07.787Z,953.18
2018-01-28T07:36:07.780Z,953.18
2018-01-28T07:37:07.774Z,953.21
2018-01-28T07:38:07.769Z,953.23
2018-01-28T07:39:07.764Z,953.24
2018-01-28T07:40:07.756Z,953.23
2018-01-28T07:41:07.752Z,953.27
2018-01-28T07:42:07.746Z,953.20
2018-01-28T07:43:07.742Z,953.22
2018-01-28T07:44:07.735Z,953.25
2018-01-28T07:45:07.728Z,953.26
2018-01-28T07:46:07.722Z,953.26
2018-01-28T07:47:07.717Z,953.31
2018-01-28T07:48:07.714Z,953.28
2018-01-28T07:49:07.706Z,953.28
2018-01-28T07:50:07.700Z,953.27
2018-01-28T07:51:07.694Z,953.32
2018-01-28T07:52:07.689Z,953.29
2018-01-28T07:53:07.683Z,953.32
2018-01-28T07:54:07.678Z,953.32
2018-01-28T07:55:07.672Z,953.33
2018-01-28T07:56:07.667Z,953.33
2018-01-28T07:57:07.662Z,953.35
2018-01-28T07:58:07.653Z,953.32
2018-01-28T07:59:07.648Z,953.37
2018-01-28T08:00:07.644Z,953.33
2018-01-28T08:01:07.638Z,953.33
2018-01-28T08:02:07.633Z,953.35
2018-01-28T08:03:07.627Z,953.34
2018-01-28T08:04:07.623Z,953.33
2018-01-28T08:05:07.619Z,953.32
2018-01-28T08:06:07.611Z,953.37
2018-01-28T08:07:07.607Z,953.37
2018-01-28T08:08:07.600Z,953.28
2018-01-28T08:09:07.596Z,953.25
2018-01-28T08:10:07.589Z,953.28
2018-01-28T08:11:07.584Z,953.31
2018-01-28T08:12:07.577Z,953.32
2018-01-28T08:13:07.573Z,953.34
2018-01-28T08:14:07.567Z,953.34
2018-01-28T08:15:07.561Z,953.31
2018-01-28T08:16:07.558Z,953.36
2018-01-28T08:17:07.551Z,953.28
2018-01-28T08:18:07.546Z,953.27
2018-01-28T08:19:07.540Z,953.30
2018-01-28T08:20:07.535Z,953.31
2018-01-28T08:21:07.533Z,953.29
2018-01-28T08:22:07.524Z,953.27
2018-01-28T08:23:07.520Z,953.27
2018-01-28T08:24:07.514Z,953.22
2018-01-28T08:25:07.510Z,953.26
2018-01-28T08:26:07.503Z,953.28
2018-01-28T08:27:07.498Z,953.23
2018-01-28T08:28:07.494Z,953.23
2018-01-28T08:29:07.488Z,953.23
2018-01-28T08:30:07.481Z,953.22
2018-01-28T08:31:07.478Z,953.27
2018-01-28T08:32:07.472Z,953.20
2018-01-28T08:33:07.467Z,953.22
2018-01-28T08:34:07.461Z,953.23
2018-01-28T08:35:07.456Z,953.26
2018-01-28T08:36:07.450Z,953.24
2018-01-28T08:37:07.446Z,953.21
2018-01-28T08:38:07.439Z,953.21
2018-01-28T08:39:07.434Z,953.26
2018-01-28T08:40:07.430Z,953.19
2018-01-28T08:41:07.424Z,953.19
2018-01-28T08:42:07.420Z,953.19
2018-01-28T08:43:07.414Z,953.25
2018-01-28T08:44:07.410Z,953.24
2018-01-28T08:45:07.404Z,953.29
2018-01-28T08:46:07.403Z,953.29
2018-01-28T08:47:07.393Z,953.24
2018-01-28T08:48:07.390Z,953.21
2018-01-28T08:49:07.384Z,953.22
2018-01-28T08:50:07.379Z,953.24
2018-01-28T08:51:07.374Z,953.30
2018-01-28T08:52:07.369Z,953.30
2018-01-28T08:53:07.367Z,953.31
2018-01-28T08:54:07.359Z,953.30
2018-01-28T08:55:07.354Z,953.36
2018-01-28T08:56:07.418Z,953.37
2018-01-28T08:57:07.344Z,953.41
2018-01-28T08:58:07.339Z,953.45
2018-01-28T08:59:07.334Z,953.43
2018-01-28T09:00:07.333Z,953.42
2018-01-28T09:01:07.357Z,953.43
2018-01-28T09:02:09.387Z,953.47
2018-01-28T09:03:07.313Z,953.48
2018-01-28T09:04:07.309Z,953.42
2018-01-28T09:05:07.305Z,953.45
2018-01-28T09:06:07.359Z,953.41
2018-01-28T09:07:07.328Z,953.43
2018-01-28T09:08:07.381Z,953.45
2018-01-28T09:09:07.310Z,953.47
2018-01-28T09:10:07.312Z,953.51
2018-01-28T09:11:07.305Z,953.47
2018-01-28T09:12:07.304Z,953.55
2018-01-28T09:13:07.290Z,953.59
2018-01-28T09:14:07.350Z,953.56
2018-01-28T09:15:07.284Z,953.56
2018-01-28T09:16:07.494Z,953.60
2018-01-28T09:17:07.292Z,953.58
2018-01-28T09:18:07.240Z,953.50
2018-01-28T09:19:07.329Z,953.54
2018-01-28T09:20:07.232Z,953.59
2018-01-28T09:21:07.228Z,953.62
2018-01-28T09:22:07.274Z,953.62
2018-01-28T09:23:07.256Z,953.63
2018-01-28T09:24:07.216Z,953.68
2018-01-28T09:25:07.210Z,953.67
2018-01-28T09:26:07.242Z,953.62
2018-01-28T09:27:07.199Z,953.56
2018-01-28T09:28:07.195Z,953.56
2018-01-28T09:29:07.192Z,953.56
2018-01-28T09:30:09.276Z,953.54
2018-01-28T09:31:07.183Z,953.55
2018-01-28T09:32:07.184Z,953.55
2018-01-28T09:33:07.176Z,953.55
2018-01-28T09:34:07.170Z,953.55
2018-01-28T09:35:07.242Z,953.56
2018-01-28T09:36:07.189Z,953.56
2018-01-28T09:37:07.199Z,953.57
2018-01-28T09:38:07.202Z,953.62
2018-01-28T09:39:07.205Z,953.61
2018-01-28T09:40:07.201Z,953.64
2018-01-28T09:41:09.304Z,953.66
2018-01-28T09:42:07.223Z,953.63
2018-01-28T09:43:07.193Z,953.66
2018-01-28T09:44:07.384Z,953.68
2018-01-28T09:45:07.144Z,953.69
2018-01-28T09:46:07.406Z,953.68
2018-01-28T09:47:07.232Z,953.68
2018-01-28T09:48:07.204Z,953.70
2018-01-28T09:49:07.192Z,953.78
2018-01-28T09:50:08.394Z,953.72
2018-01-28T09:51:07.153Z,953.74
2018-01-28T09:52:07.195Z,953.75
2018-01-28T09:53:07.168Z,953.81
2018-01-28T09:54:07.103Z,953.81
2018-01-28T09:55:07.346Z,953.80
2018-01-28T09:56:07.216Z,953.80
2018-01-28T09:57:07.083Z,953.77
2018-01-28T09:58:07.151Z,953.79
2018-01-28T09:59:07.100Z,953.80
2018-01-28T10:00:07.110Z,953.80
2018-01-28T10:01:07.111Z,953.83
2018-01-28T10:02:09.210Z,953.80
2018-01-28T10:03:07.148Z,953.81
2018-01-28T10:04:07.098Z,953.82
2018-01-28T10:05:07.079Z,953.79
2018-01-28T10:06:07.289Z,953.80
2018-01-28T10:07:07.112Z,953.82
2018-01-28T10:08:08.318Z,953.78
2018-01-28T10:09:07.087Z,953.76
2018-01-28T10:10:07.071Z,953.80
2018-01-28T10:11:07.066Z,953.78
2018-01-28T10:12:07.256Z,953.79
2018-01-28T10:13:07.101Z,953.79
2018-01-28T10:14:07.316Z,953.81
2018-01-28T10:15:07.049Z,953.82
2018-01-28T10:16:07.015Z,953.82
2018-01-28T10:17:07.032Z,953.84
2018-01-28T10:18:07.032Z,953.80
2018-01-28T10:19:07.050Z,953.82
2018-01-28T10:20:07.110Z,953.83
2018-01-28T10:21:07.040Z,953.86
2018-01-28T10:22:07.025Z,953.85
2018-01-28T10:23:07.034Z,953.89
2018-01-28T10:24:07.020Z,953.88
2018-01-28T10:25:10.059Z,953.83
2018-01-28T10:26:09.357Z,953.82
2018-01-28T10:27:06.996Z,953.84
2018-01-28T10:28:07.014Z,953.86
2018-01-28T10:29:07.006Z,953.83
2018-01-28T10:30:07.055Z,953.85
2018-01-28T10:31:07.137Z,953.83
2018-01-28T10:32:07.063Z,953.83
2018-01-28T10:33:06.993Z,953.86
2018-01-28T10:34:06.975Z,953.85
2018-01-28T10:35:08.204Z,953.83
2018-01-28T10:36:06.989Z,953.85
2018-01-28T10:37:07.230Z,953.87
2018-01-28T10:38:06.990Z,953.86
2018-01-28T10:39:06.968Z,953.86
2018-01-28T10:40:06.986Z,953.83
2018-01-28T10:41:06.987Z,953.89
2018-01-28T10:42:10.219Z,953.90
2018-01-28T10:43:06.966Z,953.86
2018-01-28T10:44:06.978Z,953.82
2018-01-28T10:45:07.160Z,953.86
2018-01-28T10:46:06.937Z,953.85
2018-01-28T10:47:06.947Z,953.87
2018-01-28T10:48:06.962Z,953.85
2018-01-28T10:49:06.954Z,953.84
2018-01-28T10:50:07.122Z,953.84
2018-01-28T10:51:06.927Z,953.82
2018-01-28T10:52:06.896Z,953.79
2018-01-28T10:53:08.953Z,953.79
2018-01-28T10:54:06.913Z,953.80
2018-01-28T10:55:06.924Z,953.78
2018-01-28T10:56:06.898Z,953.78
2018-01-28T10:57:06.855Z,953.76
2018-01-28T10:58:06.925Z,953.75
2018-01-28T10:59:06.845Z,953.75
2018-01-28T11:00:06.842Z,953.79
2018-01-28T11:01:06.838Z,953.77
2018-01-28T11:02:06.838Z,953.80
2018-01-28T11:03:07.131Z,953.79
2018-01-28T11:04:06.830Z,953.75
2018-01-28T11:05:06.827Z,953.76
2018-01-28T11:06:06.822Z,953.75
2018-01-28T11:07:06.820Z,953.73
2018-01-28T11:08:06.816Z,953.73
2018-01-28T11:09:06.813Z,953.68
2018-01-28T11:10:06.810Z,953.62
2018-01-28T11:11:06.808Z,953.66
2018-01-28T11:12:06.806Z,953.69
2018-01-28T11:13:06.803Z,953.69
2018-01-28T11:14:06.799Z,953.74
2018-01-28T11:15:06.796Z,953.70
2018-01-28T11:16:06.794Z,953.68
2018-01-28T11:17:06.791Z,953.66
2018-01-28T11:18:06.787Z,953.64
2018-01-28T11:19:06.784Z,953.62
2018-01-28T11:20:06.782Z,953.65
2018-01-28T11:21:06.780Z,953.62
2018-01-28T11:22:06.841Z,953.66
2018-01-28T11:23:06.797Z,953.64
2018-01-28T11:24:08.955Z,953.59
2018-01-28T11:25:06.827Z,953.61
2018-01-28T11:26:06.882Z,953.56
2018-01-28T11:27:06.761Z,953.56
2018-01-28T11:28:06.758Z,953.58
2018-01-28T11:29:06.756Z,953.53
2018-01-28T11:30:06.844Z,953.49
2018-01-28T11:31:06.751Z,953.54
2018-01-28T11:32:06.766Z,953.49
2018-01-28T11:33:06.802Z,953.50
2018-01-28T11:34:06.780Z,953.47
2018-01-28T11:35:06.801Z,953.43
2018-01-28T11:36:06.766Z,953.48
2018-01-28T11:37:06.732Z,953.47
2018-01-28T11:38:06.732Z,953.44
2018-01-28T11:39:06.815Z,953.48
2018-01-28T11:40:06.781Z,953.48
2018-01-28T11:41:06.720Z,953.46
2018-01-28T11:42:06.758Z,953.48
2018-01-28T11:43:06.714Z,953.47
2018-01-28T11:44:06.713Z,953.54
2018-01-28T11:45:06.750Z,953.52
2018-01-28T11:46:06.897Z,953.48
2018-01-28T11:47:06.749Z,953.46
2018-01-28T11:48:06.789Z,953.43
2018-01-28T11:49:06.754Z,953.43
2018-01-28T11:50:06.701Z,953.43
2018-01-28T11:51:06.696Z,953.49
2018-01-28T11:52:06.698Z,953.48
2018-01-28T11:53:06.782Z,953.49
2018-01-28T11:54:06.758Z,953.55
2018-01-28T11:55:06.764Z,953.50
2018-01-28T11:56:06.682Z,953.51
2018-01-28T11:57:06.680Z,953.51
2018-01-28T11:58:06.741Z,953.55
2018-01-28T11:59:06.734Z,953.52
2018-01-28T12:00:06.767Z,953.54
2018-01-28T12:01:06.673Z,953.54
2018-01-28T12:02:06.670Z,953.49
2018-01-28T12:03:06.670Z,953.51
2018-01-28T12:04:06.747Z,953.51
2018-01-28T12:05:08.973Z,953.46
2018-01-28T12:06:06.822Z,953.44
2018-01-28T12:07:06.759Z,953.39
2018-01-28T12:08:06.911Z,953.42
2018-01-28T12:09:06.732Z,953.39
2018-01-28T12:10:06.708Z,953.38
2018-01-28T12:11:06.987Z,953.39
2018-01-28T12:12:06.707Z,953.42
2018-01-28T12:13:06.703Z,953.40
2018-01-28T12:14:06.701Z,953.45
2018-01-28T12:15:06.703Z,953.41
2018-01-28T12:16:06.644Z,953.44
2018-01-28T12:17:06.720Z,953.45
2018-01-28T12:18:06.716Z,953.43
2018-01-28T12:19:06.651Z,953.47
2018-01-28T12:20:06.684Z,953.45
2018-01-28T12:21:08.760Z,953.45
2018-01-28T12:22:06.761Z,953.42
2018-01-28T12:23:06.690Z,953.44
2018-01-28T12:24:06.727Z,953.47
2018-01-28T12:25:07.117Z,953.46
2018-01-28T12:26:06.732Z,953.47
2018-01-28T12:27:06.700Z,953.43
2018-01-28T12:28:06.620Z,953.44